sensor_id;sensor_type;location;lat;lon;timestamp;temperature;humidity
19172;DHT22;9718;52.200;21.052;2022-07-18T00:00:53;15.70;99.90
19172;DHT22;9718;52.200;21.052;2022-07-18T00:03:20;15.60;99.90
19172;DHT22;9718;52.200;21.052;2022-07-18T00:05:47;15.60;99.90
19172;DHT22;9718;52.200;21.052;2022-07-18T00:08:14;15.50;99.90
19172;DHT22;9718;52.200;21.052;2022-07-18T00:10:41;15.40;99.90
19172;DHT22;9718;52.200;21.052;2022-07-18T00:13:08;15.40;99.90
19172;DHT22;9718;52.200;21.052;2022-07-18T00:15:37;15.40;99.90
19172;DHT22;9718;52.200;21.052;2022-07-18T00:18:04;15.30;99.90
19172;DHT22;9718;52.200;21.052;2022-07-18T00:20:32;15.20;99.90
19172;DHT22;9718;52.200;21.052;2022-07-18T00:22:59;15.10;99.90
19172;DHT22;9718;52.200;21.052;2022-07-18T00:25:26;15.10;99.90
19172;DHT22;9718;52.200;21.052;2022-07-18T00:27:53;15.10;99.90
19172;DHT22;9718;52.200;21.052;2022-07-18T00:30:20;15.00;99.90
19172;DHT22;9718;52.200;21.052;2022-07-18T00:32:47;15.00;99.90
19172;DHT22;9718;52.200;21.052;2022-07-18T00:35:14;14.90;99.90
19172;DHT22;9718;52.200;21.052;2022-07-18T00:37:41;14.90;99.90
19172;DHT22;9718;52.200;21.052;2022-07-18T00:40:09;14.90;99.90
19172;DHT22;9718;52.200;21.052;2022-07-18T00:42:36;14.90;99.90
19172;DHT22;9718;52.200;21.052;2022-07-18T00:45:03;14.90;99.90
19172;DHT22;9718;52.200;21.052;2022-07-18T00:47:30;14.80;99.90
19172;DHT22;9718;52.200;21.052;2022-07-18T00:49:57;14.80;99.90
19172;DHT22;9718;52.200;21.052;2022-07-18T00:52:24;14.80;99.90
19172;DHT22;9718;52.200;21.052;2022-07-18T00:54:51;14.80;99.90
19172;DHT22;9718;52.200;21.052;2022-07-18T00:57:18;14.70;99.90
19172;DHT22;9718;52.200;21.052;2022-07-18T00:59:46;14.70;99.90
19172;DHT22;9718;52.200;21.052;2022-07-18T01:02:33;14.60;99.90
19172;DHT22;9718;52.200;21.052;2022-07-18T01:05:00;14.60;99.90
19172;DHT22;9718;52.200;21.052;2022-07-18T01:07:27;14.50;99.90
19172;DHT22;9718;52.200;21.052;2022-07-18T01:09:54;14.50;99.90
19172;DHT22;9718;52.200;21.052;2022-07-18T01:12:21;14.50;99.90
19172;DHT22;9718;52.200;21.052;2022-07-18T01:14:49;14.50;99.90
19172;DHT22;9718;52.200;21.052;2022-07-18T01:17:17;14.50;99.90
19172;DHT22;9718;52.200;21.052;2022-07-18T01:19:46;14.40;99.90
19172;DHT22;9718;52.200;21.052;2022-07-18T01:22:15;14.40;99.90
19172;DHT22;9718;52.200;21.052;2022-07-18T01:24:43;14.40;99.90
19172;DHT22;9718;52.200;21.052;2022-07-18T01:27:17;14.40;99.90
19172;DHT22;9718;52.200;21.052;2022-07-18T01:29:46;14.30;99.90
19172;DHT22;9718;52.200;21.052;2022-07-18T01:32:13;14.30;99.90
19172;DHT22;9718;52.200;21.052;2022-07-18T01:34:42;14.30;99.90
19172;DHT22;9718;52.200;21.052;2022-07-18T01:37:09;14.30;99.90
19172;DHT22;9718;52.200;21.052;2022-07-18T01:39:36;14.30;99.90
19172;DHT22;9718;52.200;21.052;2022-07-18T01:42:08;14.30;99.90
19172;DHT22;9718;52.200;21.052;2022-07-18T01:44:36;14.40;99.90
19172;DHT22;9718;52.200;21.052;2022-07-18T01:47:06;14.40;99.90
19172;DHT22;9718;52.200;21.052;2022-07-18T01:49:34;14.40;99.90
19172;DHT22;9718;52.200;21.052;2022-07-18T01:52:02;14.30;99.90
19172;DHT22;9718;52.200;21.052;2022-07-18T01:54:31;14.30;99.90
19172;DHT22;9718;52.200;21.052;2022-07-18T01:56:59;14.30;99.90
19172;DHT22;9718;52.200;21.052;2022-07-18T01:59:26;14.30;99.90
19172;DHT22;9718;52.200;21.052;2022-07-18T02:01:53;14.30;99.90
19172;DHT22;9718;52.200;21.052;2022-07-18T02:04:21;14.20;99.90
19172;DHT22;9718;52.200;21.052;2022-07-18T02:07:08;14.20;99.90
19172;DHT22;9718;52.200;21.052;2022-07-18T02:09:35;14.20;99.90
19172;DHT22;9718;52.200;21.052;2022-07-18T02:12:03;14.20;99.90
19172;DHT22;9718;52.200;21.052;2022-07-18T02:14:30;14.10;99.90
19172;DHT22;9718;52.200;21.052;2022-07-18T02:16:57;14.10;99.90
19172;DHT22;9718;52.200;21.052;2022-07-18T02:19:24;14.10;99.90
19172;DHT22;9718;52.200;21.052;2022-07-18T02:21:51;14.10;99.90
19172;DHT22;9718;52.200;21.052;2022-07-18T02:24:18;14.10;99.90
19172;DHT22;9718;52.200;21.052;2022-07-18T02:26:45;14.00;99.90
19172;DHT22;9718;52.200;21.052;2022-07-18T02:29:12;14.00;99.90
19172;DHT22;9718;52.200;21.052;2022-07-18T02:31:39;14.00;99.90
19172;DHT22;9718;52.200;21.052;2022-07-18T02:34:06;14.00;99.90
19172;DHT22;9718;52.200;21.052;2022-07-18T02:36:38;14.00;99.90
19172;DHT22;9718;52.200;21.052;2022-07-18T02:39:05;13.90;99.90
19172;DHT22;9718;52.200;21.052;2022-07-18T02:41:34;14.00;99.90
19172;DHT22;9718;52.200;21.052;2022-07-18T02:44:01;14.00;99.90
19172;DHT22;9718;52.200;21.052;2022-07-18T02:46:29;14.00;99.90
19172;DHT22;9718;52.200;21.052;2022-07-18T02:48:56;13.90;99.90
19172;DHT22;9718;52.200;21.052;2022-07-18T02:51:23;13.90;99.90
19172;DHT22;9718;52.200;21.052;2022-07-18T02:53:50;14.00;99.90
19172;DHT22;9718;52.200;21.052;2022-07-18T02:56:17;13.90;99.90
19172;DHT22;9718;52.200;21.052;2022-07-18T02:58:44;13.90;99.90
19172;DHT22;9718;52.200;21.052;2022-07-18T03:01:11;14.00;99.90
19172;DHT22;9718;52.200;21.052;2022-07-18T03:03:39;14.00;99.90
19172;DHT22;9718;52.200;21.052;2022-07-18T03:06:06;14.00;99.90
19172;DHT22;9718;52.200;21.052;2022-07-18T03:08:33;13.90;99.90
19172;DHT22;9718;52.200;21.052;2022-07-18T03:11:00;13.90;99.90
19172;DHT22;9718;52.200;21.052;2022-07-18T03:13:27;13.90;99.90
19172;DHT22;9718;52.200;21.052;2022-07-18T03:15:54;14.00;99.90
19172;DHT22;9718;52.200;21.052;2022-07-18T03:18:21;14.00;99.90
19172;DHT22;9718;52.200;21.052;2022-07-18T03:20:49;14.00;99.90
19172;DHT22;9718;52.200;21.052;2022-07-18T03:23:16;14.00;99.90
19172;DHT22;9718;52.200;21.052;2022-07-18T03:25:43;14.00;99.90
19172;DHT22;9718;52.200;21.052;2022-07-18T03:28:10;14.00;99.90
19172;DHT22;9718;52.200;21.052;2022-07-18T03:30:37;14.00;99.90
19172;DHT22;9718;52.200;21.052;2022-07-18T03:33:04;14.00;99.90
19172;DHT22;9718;52.200;21.052;2022-07-18T03:35:32;14.10;99.90
19172;DHT22;9718;52.200;21.052;2022-07-18T03:37:59;14.20;99.90
19172;DHT22;9718;52.200;21.052;2022-07-18T03:40:26;14.20;99.90
19172;DHT22;9718;52.200;21.052;2022-07-18T03:42:54;14.30;99.90
19172;DHT22;9718;52.200;21.052;2022-07-18T03:45:20;14.30;99.90
19172;DHT22;9718;52.200;21.052;2022-07-18T03:47:48;14.30;99.90
19172;DHT22;9718;52.200;21.052;2022-07-18T03:50:15;14.40;99.90
19172;DHT22;9718;52.200;21.052;2022-07-18T03:52:42;14.40;99.90
19172;DHT22;9718;52.200;21.052;2022-07-18T03:55:09;14.50;99.90
19172;DHT22;9718;52.200;21.052;2022-07-18T03:57:36;14.60;99.90
19172;DHT22;9718;52.200;21.052;2022-07-18T04:00:05;14.70;99.90
19172;DHT22;9718;52.200;21.052;2022-07-18T04:02:42;14.80;99.90
19172;DHT22;9718;52.200;21.052;2022-07-18T04:05:10;14.80;99.90
19172;DHT22;9718;52.200;21.052;2022-07-18T04:07:38;15.00;99.90
19172;DHT22;9718;52.200;21.052;2022-07-18T04:10:06;15.10;99.90
19172;DHT22;9718;52.200;21.052;2022-07-18T04:12:34;15.10;99.90
19172;DHT22;9718;52.200;21.052;2022-07-18T04:15:01;15.20;99.90
19172;DHT22;9718;52.200;21.052;2022-07-18T04:17:29;15.20;99.90
19172;DHT22;9718;52.200;21.052;2022-07-18T04:19:56;15.10;99.90
19172;DHT22;9718;52.200;21.052;2022-07-18T04:22:23;15.10;99.90
19172;DHT22;9718;52.200;21.052;2022-07-18T04:24:50;15.10;99.90
19172;DHT22;9718;52.200;21.052;2022-07-18T04:27:19;15.20;99.90
19172;DHT22;9718;52.200;21.052;2022-07-18T04:29:46;15.20;99.90
19172;DHT22;9718;52.200;21.052;2022-07-18T04:32:14;15.20;99.90
19172;DHT22;9718;52.200;21.052;2022-07-18T04:34:41;15.20;99.90
19172;DHT22;9718;52.200;21.052;2022-07-18T04:37:08;15.30;99.90
19172;DHT22;9718;52.200;21.052;2022-07-18T04:39:36;15.40;99.90
19172;DHT22;9718;52.200;21.052;2022-07-18T04:42:03;15.50;99.90
19172;DHT22;9718;52.200;21.052;2022-07-18T04:44:30;15.50;99.90
19172;DHT22;9718;52.200;21.052;2022-07-18T04:46:57;15.70;99.90
19172;DHT22;9718;52.200;21.052;2022-07-18T04:49:24;15.80;99.90
19172;DHT22;9718;52.200;21.052;2022-07-18T04:51:51;15.90;99.90
19172;DHT22;9718;52.200;21.052;2022-07-18T04:54:18;16.10;99.90
19172;DHT22;9718;52.200;21.052;2022-07-18T04:56:45;16.10;99.90
19172;DHT22;9718;52.200;21.052;2022-07-18T04:59:12;16.20;99.90
19172;DHT22;9718;52.200;21.052;2022-07-18T05:01:39;16.30;99.90
19172;DHT22;9718;52.200;21.052;2022-07-18T05:04:07;16.60;99.90
19172;DHT22;9718;52.200;21.052;2022-07-18T05:06:33;16.70;99.90
19172;DHT22;9718;52.200;21.052;2022-07-18T05:09:00;16.70;99.90
19172;DHT22;9718;52.200;21.052;2022-07-18T05:11:28;16.80;99.90
19172;DHT22;9718;52.200;21.052;2022-07-18T05:13:54;17.10;99.90
19172;DHT22;9718;52.200;21.052;2022-07-18T05:16:22;17.20;99.90
19172;DHT22;9718;52.200;21.052;2022-07-18T05:18:49;17.30;99.90
19172;DHT22;9718;52.200;21.052;2022-07-18T05:21:16;17.30;99.90
19172;DHT22;9718;52.200;21.052;2022-07-18T05:23:43;17.50;99.90
19172;DHT22;9718;52.200;21.052;2022-07-18T05:26:12;17.70;99.90
19172;DHT22;9718;52.200;21.052;2022-07-18T05:28:39;17.90;99.90
19172;DHT22;9718;52.200;21.052;2022-07-18T05:31:06;18.10;99.90
19172;DHT22;9718;52.200;21.052;2022-07-18T05:33:33;18.00;99.90
19172;DHT22;9718;52.200;21.052;2022-07-18T05:36:04;17.80;99.90
19172;DHT22;9718;52.200;21.052;2022-07-18T05:38:31;18.00;99.90
19172;DHT22;9718;52.200;21.052;2022-07-18T05:40:58;18.20;99.90
19172;DHT22;9718;52.200;21.052;2022-07-18T05:43:25;18.50;99.90
19172;DHT22;9718;52.200;21.052;2022-07-18T05:45:52;18.50;99.90
19172;DHT22;9718;52.200;21.052;2022-07-18T05:48:19;18.70;99.90
19172;DHT22;9718;52.200;21.052;2022-07-18T05:50:46;18.80;99.90
19172;DHT22;9718;52.200;21.052;2022-07-18T05:53:13;18.90;99.90
19172;DHT22;9718;52.200;21.052;2022-07-18T05:55:40;19.10;99.90
19172;DHT22;9718;52.200;21.052;2022-07-18T05:58:07;19.00;99.90
19172;DHT22;9718;52.200;21.052;2022-07-18T06:00:35;19.00;99.90
19172;DHT22;9718;52.200;21.052;2022-07-18T06:03:02;19.20;99.90
19172;DHT22;9718;52.200;21.052;2022-07-18T06:05:29;19.00;99.90
19172;DHT22;9718;52.200;21.052;2022-07-18T06:07:56;19.00;99.90
19172;DHT22;9718;52.200;21.052;2022-07-18T06:10:25;19.10;99.90
19172;DHT22;9718;52.200;21.052;2022-07-18T06:12:53;19.30;99.90
19172;DHT22;9718;52.200;21.052;2022-07-18T06:15:20;19.50;99.90
19172;DHT22;9718;52.200;21.052;2022-07-18T06:17:48;19.70;99.90
19172;DHT22;9718;52.200;21.052;2022-07-18T06:20:16;19.60;99.90
19172;DHT22;9718;52.200;21.052;2022-07-18T06:22:43;19.30;99.90
19172;DHT22;9718;52.200;21.052;2022-07-18T06:25:11;19.50;99.90
19172;DHT22;9718;52.200;21.052;2022-07-18T06:27:38;19.80;99.90
19172;DHT22;9718;52.200;21.052;2022-07-18T06:30:06;20.00;99.90
19172;DHT22;9718;52.200;21.052;2022-07-18T06:32:36;20.40;99.90
19172;DHT22;9718;52.200;21.052;2022-07-18T06:35:03;20.40;99.90
19172;DHT22;9718;52.200;21.052;2022-07-18T06:37:30;20.40;99.90
19172;DHT22;9718;52.200;21.052;2022-07-18T06:39:57;20.50;99.90
19172;DHT22;9718;52.200;21.052;2022-07-18T06:42:29;20.20;99.90
19172;DHT22;9718;52.200;21.052;2022-07-18T06:44:56;19.90;99.90
19172;DHT22;9718;52.200;21.052;2022-07-18T06:47:23;19.70;99.90
19172;DHT22;9718;52.200;21.052;2022-07-18T06:49:50;19.60;99.90
19172;DHT22;9718;52.200;21.052;2022-07-18T06:52:18;19.70;99.90
19172;DHT22;9718;52.200;21.052;2022-07-18T06:54:45;19.70;99.90
19172;DHT22;9718;52.200;21.052;2022-07-18T06:57:12;19.80;99.90
19172;DHT22;9718;52.200;21.052;2022-07-18T06:59:39;20.00;99.90
19172;DHT22;9718;52.200;21.052;2022-07-18T07:02:14;20.20;99.90
19172;DHT22;9718;52.200;21.052;2022-07-18T07:04:41;20.30;99.90
19172;DHT22;9718;52.200;21.052;2022-07-18T07:07:08;20.20;99.90
19172;DHT22;9718;52.200;21.052;2022-07-18T07:09:36;20.40;99.90
19172;DHT22;9718;52.200;21.052;2022-07-18T07:12:03;20.40;99.90
19172;DHT22;9718;52.200;21.052;2022-07-18T07:14:30;20.60;99.90
19172;DHT22;9718;52.200;21.052;2022-07-18T07:16:57;20.50;99.90
19172;DHT22;9718;52.200;21.052;2022-07-18T07:19:24;20.50;99.90
19172;DHT22;9718;52.200;21.052;2022-07-18T07:21:52;20.80;99.90
19172;DHT22;9718;52.200;21.052;2022-07-18T07:24:19;21.30;99.90
19172;DHT22;9718;52.200;21.052;2022-07-18T07:26:46;21.40;99.90
19172;DHT22;9718;52.200;21.052;2022-07-18T07:29:21;21.20;99.90
19172;DHT22;9718;52.200;21.052;2022-07-18T07:31:48;21.00;99.90
19172;DHT22;9718;52.200;21.052;2022-07-18T07:34:16;20.90;99.90
19172;DHT22;9718;52.200;21.052;2022-07-18T07:36:43;21.00;99.90
19172;DHT22;9718;52.200;21.052;2022-07-18T07:39:10;21.00;99.90
19172;DHT22;9718;52.200;21.052;2022-07-18T07:41:37;21.20;99.90
19172;DHT22;9718;52.200;21.052;2022-07-18T07:44:04;21.40;99.90
19172;DHT22;9718;52.200;21.052;2022-07-18T07:46:31;21.70;99.90
19172;DHT22;9718;52.200;21.052;2022-07-18T07:48:59;21.40;99.90
19172;DHT22;9718;52.200;21.052;2022-07-18T07:51:26;21.00;99.90
19172;DHT22;9718;52.200;21.052;2022-07-18T07:54:01;21.10;99.90
19172;DHT22;9718;52.200;21.052;2022-07-18T07:56:28;21.40;99.90
19172;DHT22;9718;52.200;21.052;2022-07-18T07:58:55;21.40;99.90
19172;DHT22;9718;52.200;21.052;2022-07-18T08:01:23;21.70;99.90
19172;DHT22;9718;52.200;21.052;2022-07-18T08:03:50;21.80;99.90
19172;DHT22;9718;52.200;21.052;2022-07-18T08:06:17;21.90;99.90
19172;DHT22;9718;52.200;21.052;2022-07-18T08:08:44;22.20;99.90
19172;DHT22;9718;52.200;21.052;2022-07-18T08:11:12;22.30;99.90
19172;DHT22;9718;52.200;21.052;2022-07-18T08:13:38;22.10;99.90
19172;DHT22;9718;52.200;21.052;2022-07-18T08:16:06;22.00;99.90
19172;DHT22;9718;52.200;21.052;2022-07-18T08:18:33;21.90;99.90
19172;DHT22;9718;52.200;21.052;2022-07-18T08:21:00;22.10;99.90
19172;DHT22;9718;52.200;21.052;2022-07-18T08:23:27;22.00;99.90
19172;DHT22;9718;52.200;21.052;2022-07-18T08:25:54;21.70;99.90
19172;DHT22;9718;52.200;21.052;2022-07-18T08:28:21;21.80;99.90
19172;DHT22;9718;52.200;21.052;2022-07-18T08:30:48;21.90;99.90
19172;DHT22;9718;52.200;21.052;2022-07-18T08:33:15;22.20;99.90
19172;DHT22;9718;52.200;21.052;2022-07-18T08:35:42;22.00;99.90
19172;DHT22;9718;52.200;21.052;2022-07-18T08:38:09;21.70;99.90
19172;DHT22;9718;52.200;21.052;2022-07-18T08:40:40;21.70;99.90
19172;DHT22;9718;52.200;21.052;2022-07-18T08:43:07;21.70;99.90
19172;DHT22;9718;52.200;21.052;2022-07-18T08:45:54;21.90;99.90
19172;DHT22;9718;52.200;21.052;2022-07-18T08:48:23;22.10;99.90
19172;DHT22;9718;52.200;21.052;2022-07-18T08:50:50;22.10;99.90
19172;DHT22;9718;52.200;21.052;2022-07-18T08:53:33;22.50;99.90
19172;DHT22;9718;52.200;21.052;2022-07-18T08:56:16;22.40;99.90
19172;DHT22;9718;52.200;21.052;2022-07-18T08:59:02;22.50;99.90
19172;DHT22;9718;52.200;21.052;2022-07-18T09:01:44;22.70;99.90
19172;DHT22;9718;52.200;21.052;2022-07-18T09:04:11;22.90;99.90
19172;DHT22;9718;52.200;21.052;2022-07-18T09:06:48;22.60;99.90
19172;DHT22;9718;52.200;21.052;2022-07-18T09:09:16;22.40;99.90
19172;DHT22;9718;52.200;21.052;2022-07-18T09:11:55;22.40;99.90
19172;DHT22;9718;52.200;21.052;2022-07-18T09:14:36;22.80;99.90
19172;DHT22;9718;52.200;21.052;2022-07-18T09:17:09;23.00;99.90
19172;DHT22;9718;52.200;21.052;2022-07-18T09:19:42;23.40;99.90
19172;DHT22;9718;52.200;21.052;2022-07-18T09:25:13;24.30;99.90
19172;DHT22;9718;52.200;21.052;2022-07-18T09:27:42;24.10;99.90
19172;DHT22;9718;52.200;21.052;2022-07-18T09:30:25;24.10;99.90
19172;DHT22;9718;52.200;21.052;2022-07-18T09:33:13;24.30;99.90
19172;DHT22;9718;52.200;21.052;2022-07-18T09:38:14;24.50;99.90
19172;DHT22;9718;52.200;21.052;2022-07-18T09:40:46;24.00;99.90
19172;DHT22;9718;52.200;21.052;2022-07-18T09:43:36;24.30;99.90
19172;DHT22;9718;52.200;21.052;2022-07-18T09:46:24;24.30;99.90
19172;DHT22;9718;52.200;21.052;2022-07-18T09:49:09;24.30;99.90
19172;DHT22;9718;52.200;21.052;2022-07-18T09:52:06;24.10;99.90
19172;DHT22;9718;52.200;21.052;2022-07-18T09:55:09;24.10;99.90
19172;DHT22;9718;52.200;21.052;2022-07-18T09:58:02;24.00;99.90
19172;DHT22;9718;52.200;21.052;2022-07-18T10:00:33;24.10;99.90
19172;DHT22;9718;52.200;21.052;2022-07-18T10:03:01;24.50;99.90
19172;DHT22;9718;52.200;21.052;2022-07-18T10:05:31;24.80;99.90
19172;DHT22;9718;52.200;21.052;2022-07-18T10:08:00;25.20;99.90
19172;DHT22;9718;52.200;21.052;2022-07-18T10:10:29;25.20;99.90
19172;DHT22;9718;52.200;21.052;2022-07-18T10:12:58;25.60;99.90
19172;DHT22;9718;52.200;21.052;2022-07-18T10:15:29;25.50;99.90
19172;DHT22;9718;52.200;21.052;2022-07-18T10:17:57;25.40;99.90
19172;DHT22;9718;52.200;21.052;2022-07-18T10:20:27;24.90;99.90
19172;DHT22;9718;52.200;21.052;2022-07-18T10:22:58;24.50;99.90
19172;DHT22;9718;52.200;21.052;2022-07-18T10:25:25;24.40;99.90
19172;DHT22;9718;52.200;21.052;2022-07-18T10:28:01;25.00;99.90
19172;DHT22;9718;52.200;21.052;2022-07-18T10:33:37;24.70;99.90
19172;DHT22;9718;52.200;21.052;2022-07-18T10:36:15;24.40;99.90
19172;DHT22;9718;52.200;21.052;2022-07-18T10:39:11;24.30;99.90
19172;DHT22;9718;52.200;21.052;2022-07-18T10:57:37;25.30;99.90
19172;DHT22;9718;52.200;21.052;2022-07-18T11:00:16;25.40;99.90
19172;DHT22;9718;52.200;21.052;2022-07-18T11:13:42;26.60;99.90
19172;DHT22;9718;52.200;21.052;2022-07-18T11:16:24;26.30;99.90
19172;DHT22;9718;52.200;21.052;2022-07-18T11:21:19;25.70;99.90
19172;DHT22;9718;52.200;21.052;2022-07-18T11:24:01;25.70;99.90
19172;DHT22;9718;52.200;21.052;2022-07-18T11:26:29;25.10;99.90
19172;DHT22;9718;52.200;21.052;2022-07-18T11:31:29;24.70;99.90
19172;DHT22;9718;52.200;21.052;2022-07-18T11:33:59;24.90;99.90
19172;DHT22;9718;52.200;21.052;2022-07-18T11:36:31;24.60;99.90
19172;DHT22;9718;52.200;21.052;2022-07-18T11:39:02;24.30;99.90
19172;DHT22;9718;52.200;21.052;2022-07-18T11:41:30;24.00;99.90
19172;DHT22;9718;52.200;21.052;2022-07-18T11:43:58;24.00;99.90
19172;DHT22;9718;52.200;21.052;2022-07-18T11:46:26;24.00;99.90
19172;DHT22;9718;52.200;21.052;2022-07-18T11:49:01;24.10;99.90
19172;DHT22;9718;52.200;21.052;2022-07-18T11:51:37;24.00;99.90
19172;DHT22;9718;52.200;21.052;2022-07-18T11:54:05;24.10;99.90
19172;DHT22;9718;52.200;21.052;2022-07-18T11:56:32;24.00;99.90
19172;DHT22;9718;52.200;21.052;2022-07-18T11:58:59;24.20;99.90
19172;DHT22;9718;52.200;21.052;2022-07-18T12:01:32;24.10;99.90
19172;DHT22;9718;52.200;21.052;2022-07-18T12:04:00;24.40;99.90
19172;DHT22;9718;52.200;21.052;2022-07-18T12:06:29;24.60;99.90
19172;DHT22;9718;52.200;21.052;2022-07-18T12:08:57;24.80;99.90
19172;DHT22;9718;52.200;21.052;2022-07-18T12:11:34;24.90;99.90
19172;DHT22;9718;52.200;21.052;2022-07-18T12:16:35;25.50;99.90
19172;DHT22;9718;52.200;21.052;2022-07-18T12:19:10;25.70;99.90
19172;DHT22;9718;52.200;21.052;2022-07-18T12:21:52;26.00;99.90
19172;DHT22;9718;52.200;21.052;2022-07-18T12:27:19;26.00;99.90
19172;DHT22;9718;52.200;21.052;2022-07-18T12:32:55;26.00;99.90
19172;DHT22;9718;52.200;21.052;2022-07-18T12:38:03;27.10;99.90
19172;DHT22;9718;52.200;21.052;2022-07-18T12:43:16;26.10;99.90
19172;DHT22;9718;52.200;21.052;2022-07-18T12:45:43;25.80;99.90
19172;DHT22;9718;52.200;21.052;2022-07-18T12:48:11;25.80;99.90
19172;DHT22;9718;52.200;21.052;2022-07-18T12:50:40;25.50;99.90
19172;DHT22;9718;52.200;21.052;2022-07-18T12:53:08;25.20;99.90
19172;DHT22;9718;52.200;21.052;2022-07-18T12:55:35;25.20;99.90
19172;DHT22;9718;52.200;21.052;2022-07-18T12:58:03;25.20;99.90
19172;DHT22;9718;52.200;21.052;2022-07-18T13:00:32;25.20;99.90
19172;DHT22;9718;52.200;21.052;2022-07-18T13:02:59;24.90;99.90
19172;DHT22;9718;52.200;21.052;2022-07-18T13:05:28;25.10;99.90
19172;DHT22;9718;52.200;21.052;2022-07-18T13:07:56;24.90;99.90
19172;DHT22;9718;52.200;21.052;2022-07-18T13:10:23;24.80;99.90
19172;DHT22;9718;52.200;21.052;2022-07-18T13:12:51;25.30;99.90
19172;DHT22;9718;52.200;21.052;2022-07-18T13:15:18;25.70;99.90
19172;DHT22;9718;52.200;21.052;2022-07-18T13:17:48;25.50;99.90
19172;DHT22;9718;52.200;21.052;2022-07-18T13:20:17;25.20;99.90
19172;DHT22;9718;52.200;21.052;2022-07-18T13:22:44;25.40;99.90
19172;DHT22;9718;52.200;21.052;2022-07-18T13:25:18;25.80;99.90
19172;DHT22;9718;52.200;21.052;2022-07-18T13:27:46;25.80;99.90
19172;DHT22;9718;52.200;21.052;2022-07-18T13:30:13;25.40;99.90
19172;DHT22;9718;52.200;21.052;2022-07-18T13:32:40;25.60;99.90
19172;DHT22;9718;52.200;21.052;2022-07-18T13:35:12;25.70;99.90
19172;DHT22;9718;52.200;21.052;2022-07-18T13:37:39;25.80;99.90
19172;DHT22;9718;52.200;21.052;2022-07-18T13:40:07;25.70;99.90
19172;DHT22;9718;52.200;21.052;2022-07-18T13:42:36;25.90;99.90
19172;DHT22;9718;52.200;21.052;2022-07-18T13:45:03;26.00;99.90
19172;DHT22;9718;52.200;21.052;2022-07-18T13:47:31;26.20;99.90
19172;DHT22;9718;52.200;21.052;2022-07-18T13:49:58;26.00;99.90
19172;DHT22;9718;52.200;21.052;2022-07-18T13:52:25;25.90;99.90
19172;DHT22;9718;52.200;21.052;2022-07-18T13:54:52;26.10;99.90
19172;DHT22;9718;52.200;21.052;2022-07-18T13:57:22;25.50;99.90
19172;DHT22;9718;52.200;21.052;2022-07-18T13:59:49;25.30;99.90
19172;DHT22;9718;52.200;21.052;2022-07-18T14:02:17;25.40;99.90
19172;DHT22;9718;52.200;21.052;2022-07-18T14:04:45;25.50;99.90
19172;DHT22;9718;52.200;21.052;2022-07-18T14:07:32;25.30;99.90
19172;DHT22;9718;52.200;21.052;2022-07-18T14:09:59;25.50;99.90
19172;DHT22;9718;52.200;21.052;2022-07-18T14:12:26;25.70;99.90
19172;DHT22;9718;52.200;21.052;2022-07-18T14:14:53;25.90;99.90
19172;DHT22;9718;52.200;21.052;2022-07-18T14:17:21;25.90;99.90
19172;DHT22;9718;52.200;21.052;2022-07-18T14:19:48;25.80;99.90
19172;DHT22;9718;52.200;21.052;2022-07-18T14:22:15;26.00;99.90
19172;DHT22;9718;52.200;21.052;2022-07-18T14:24:42;26.10;99.90
19172;DHT22;9718;52.200;21.052;2022-07-18T14:27:09;26.00;99.90
19172;DHT22;9718;52.200;21.052;2022-07-18T14:29:36;26.00;99.90
19172;DHT22;9718;52.200;21.052;2022-07-18T14:32:04;26.30;99.90
19172;DHT22;9718;52.200;21.052;2022-07-18T14:34:31;26.40;99.90
19172;DHT22;9718;52.200;21.052;2022-07-18T14:36:59;26.40;99.90
19172;DHT22;9718;52.200;21.052;2022-07-18T14:39:26;26.40;99.90
19172;DHT22;9718;52.200;21.052;2022-07-18T14:41:54;26.00;99.90
19172;DHT22;9718;52.200;21.052;2022-07-18T14:44:22;26.20;99.90
19172;DHT22;9718;52.200;21.052;2022-07-18T14:46:49;26.10;99.90
19172;DHT22;9718;52.200;21.052;2022-07-18T14:49:16;26.10;99.90
19172;DHT22;9718;52.200;21.052;2022-07-18T14:51:44;25.90;99.90
19172;DHT22;9718;52.200;21.052;2022-07-18T14:54:15;25.80;99.90
19172;DHT22;9718;52.200;21.052;2022-07-18T14:56:42;25.80;99.90
19172;DHT22;9718;52.200;21.052;2022-07-18T14:59:10;25.60;99.90
19172;DHT22;9718;52.200;21.052;2022-07-18T15:01:37;25.60;99.90
19172;DHT22;9718;52.200;21.052;2022-07-18T15:04:04;25.40;99.90
19172;DHT22;9718;52.200;21.052;2022-07-18T15:06:36;25.50;99.90
19172;DHT22;9718;52.200;21.052;2022-07-18T15:09:03;25.70;99.90
19172;DHT22;9718;52.200;21.052;2022-07-18T15:11:30;25.60;99.90
19172;DHT22;9718;52.200;21.052;2022-07-18T15:13:58;25.80;99.90
19172;DHT22;9718;52.200;21.052;2022-07-18T15:16:25;25.80;99.90
19172;DHT22;9718;52.200;21.052;2022-07-18T15:18:52;25.90;99.90
19172;DHT22;9718;52.200;21.052;2022-07-18T15:21:22;26.00;99.90
19172;DHT22;9718;52.200;21.052;2022-07-18T15:23:52;25.80;99.90
19172;DHT22;9718;52.200;21.052;2022-07-18T15:26:19;25.70;99.90
19172;DHT22;9718;52.200;21.052;2022-07-18T15:28:46;25.60;99.90
19172;DHT22;9718;52.200;21.052;2022-07-18T15:31:13;25.60;99.90
19172;DHT22;9718;52.200;21.052;2022-07-18T15:33:40;25.70;99.90
19172;DHT22;9718;52.200;21.052;2022-07-18T15:36:07;26.10;99.90
19172;DHT22;9718;52.200;21.052;2022-07-18T15:38:34;26.00;99.90
19172;DHT22;9718;52.200;21.052;2022-07-18T15:41:06;26.30;99.90
19172;DHT22;9718;52.200;21.052;2022-07-18T15:43:33;26.50;99.90
19172;DHT22;9718;52.200;21.052;2022-07-18T15:46:00;26.20;99.90
19172;DHT22;9718;52.200;21.052;2022-07-18T15:48:28;26.30;99.90
19172;DHT22;9718;52.200;21.052;2022-07-18T15:50:55;26.30;99.90
19172;DHT22;9718;52.200;21.052;2022-07-18T15:53:22;25.90;99.90
19172;DHT22;9718;52.200;21.052;2022-07-18T15:55:49;26.10;99.90
19172;DHT22;9718;52.200;21.052;2022-07-18T15:58:16;26.40;99.90
19172;DHT22;9718;52.200;21.052;2022-07-18T16:00:43;26.40;99.90
19172;DHT22;9718;52.200;21.052;2022-07-18T16:03:10;26.40;99.90
19172;DHT22;9718;52.200;21.052;2022-07-18T16:05:37;26.20;99.90
19172;DHT22;9718;52.200;21.052;2022-07-18T16:08:04;26.20;99.90
19172;DHT22;9718;52.200;21.052;2022-07-18T16:10:31;26.20;99.90
19172;DHT22;9718;52.200;21.052;2022-07-18T16:12:58;26.10;99.90
19172;DHT22;9718;52.200;21.052;2022-07-18T16:15:25;26.10;99.90
19172;DHT22;9718;52.200;21.052;2022-07-18T16:17:52;26.10;99.90
19172;DHT22;9718;52.200;21.052;2022-07-18T16:20:26;25.90;99.90
19172;DHT22;9718;52.200;21.052;2022-07-18T16:22:53;25.70;99.90
19172;DHT22;9718;52.200;21.052;2022-07-18T16:25:20;25.40;99.90
19172;DHT22;9718;52.200;21.052;2022-07-18T16:27:47;25.10;99.90
19172;DHT22;9718;52.200;21.052;2022-07-18T16:30:14;25.00;99.90
19172;DHT22;9718;52.200;21.052;2022-07-18T16:32:41;25.10;99.90
19172;DHT22;9718;52.200;21.052;2022-07-18T16:35:08;25.20;99.90